sensor_id;sensor_type;location;lat;lon;timestamp;temperature;humidity
74537;SHT31;63013;51.104;-115.370;2023-03-15T00:01:10;21.79;29.92
74537;SHT31;63013;51.104;-115.370;2023-03-15T00:03:43;21.78;29.91
74537;SHT31;63013;51.104;-115.370;2023-03-15T00:06:11;21.76;29.96
74537;SHT31;63013;51.104;-115.370;2023-03-15T00:08:39;21.74;29.93
74537;SHT31;63013;51.104;-115.370;2023-03-15T00:11:16;21.72;29.97
74537;SHT31;63013;51.104;-115.370;2023-03-15T00:13:47;21.69;29.99
74537;SHT31;63013;51.104;-115.370;2023-03-15T00:16:15;21.67;29.99
74537;SHT31;63013;51.104;-115.370;2023-03-15T00:18:43;21.65;30.00
74537;SHT31;63013;51.104;-115.370;2023-03-15T00:21:11;21.62;30.01
74537;SHT31;63013;51.104;-115.370;2023-03-15T00:23:39;21.60;30.01
74537;SHT31;63013;51.104;-115.370;2023-03-15T00:26:06;21.58;30.02
74537;SHT31;63013;51.104;-115.370;2023-03-15T00:28:33;21.57;30.05
74537;SHT31;63013;51.104;-115.370;2023-03-15T00:31:03;21.53;30.04
74537;SHT31;63013;51.104;-115.370;2023-03-15T00:33:34;21.52;30.03
74537;SHT31;63013;51.104;-115.370;2023-03-15T00:36:03;21.50;30.06
74537;SHT31;63013;51.104;-115.370;2023-03-15T00:38:32;21.48;30.09
74537;SHT31;63013;51.104;-115.370;2023-03-15T00:41:04;21.46;30.09
74537;SHT31;63013;51.104;-115.370;2023-03-15T00:43:37;21.43;30.12
74537;SHT31;63013;51.104;-115.370;2023-03-15T00:46:05;21.42;30.17
74537;SHT31;63013;51.104;-115.370;2023-03-15T00:48:32;21.39;30.17
74537;SHT31;63013;51.104;-115.370;2023-03-15T00:51:03;21.36;30.19
74537;SHT31;63013;51.104;-115.370;2023-03-15T00:53:40;21.34;30.16
74537;SHT31;63013;51.104;-115.370;2023-03-15T00:56:17;21.32;30.17
74537;SHT31;63013;51.104;-115.370;2023-03-15T00:58:47;21.30;30.19
74537;SHT31;63013;51.104;-115.370;2023-03-15T01:01:16;21.27;30.19
74537;SHT31;63013;51.104;-115.370;2023-03-15T01:03:49;21.26;30.17
74537;SHT31;63013;51.104;-115.370;2023-03-15T01:06:19;21.23;30.19
74537;SHT31;63013;51.104;-115.370;2023-03-15T01:08:49;21.21;30.20
74537;SHT31;63013;51.104;-115.370;2023-03-15T01:11:21;21.18;30.20
74537;SHT31;63013;51.104;-115.370;2023-03-15T01:13:52;21.16;30.20
74537;SHT31;63013;51.104;-115.370;2023-03-15T01:16:21;21.13;30.18
74537;SHT31;63013;51.104;-115.370;2023-03-15T01:18:49;21.11;30.20
74537;SHT31;63013;51.104;-115.370;2023-03-15T01:21:18;21.08;30.21
74537;SHT31;63013;51.104;-115.370;2023-03-15T01:23:46;21.06;30.21
74537;SHT31;63013;51.104;-115.370;2023-03-15T01:26:14;21.04;30.20
74537;SHT31;63013;51.104;-115.370;2023-03-15T01:28:43;21.02;30.21
74537;SHT31;63013;51.104;-115.370;2023-03-15T01:31:24;20.99;30.21
74537;SHT31;63013;51.104;-115.370;2023-03-15T01:33:55;20.98;30.21
74537;SHT31;63013;51.104;-115.370;2023-03-15T01:36:23;20.95;30.28
74537;SHT31;63013;51.104;-115.370;2023-03-15T01:38:50;20.93;30.26
74537;SHT31;63013;51.104;-115.370;2023-03-15T01:41:19;20.91;30.27
74537;SHT31;63013;51.104;-115.370;2023-03-15T01:43:49;20.89;30.28
74537;SHT31;63013;51.104;-115.370;2023-03-15T01:51:47;20.81;30.31
74537;SHT31;63013;51.104;-115.370;2023-03-15T01:54:40;20.79;30.38
74537;SHT31;63013;51.104;-115.370;2023-03-15T01:57:36;20.76;30.38
74537;SHT31;63013;51.104;-115.370;2023-03-15T02:00:12;20.74;30.40
74537;SHT31;63013;51.104;-115.370;2023-03-15T02:02:45;20.71;30.40
74537;SHT31;63013;51.104;-115.370;2023-03-15T02:05:35;20.69;30.42
74537;SHT31;63013;51.104;-115.370;2023-03-15T02:08:31;20.66;30.42
74537;SHT31;63013;51.104;-115.370;2023-03-15T02:11:08;20.63;30.42
74537;SHT31;63013;51.104;-115.370;2023-03-15T02:13:38;20.61;30.47
74537;SHT31;63013;51.104;-115.370;2023-03-15T02:16:06;20.58;30.49
74537;SHT31;63013;51.104;-115.370;2023-03-15T02:18:34;20.57;30.47
74537;SHT31;63013;51.104;-115.370;2023-03-15T02:21:05;20.55;30.50
74537;SHT31;63013;51.104;-115.370;2023-03-15T02:23:36;20.52;30.49
74537;SHT31;63013;51.104;-115.370;2023-03-15T02:28:51;20.46;30.50
74537;SHT31;63013;51.104;-115.370;2023-03-15T02:31:20;20.45;30.51
74537;SHT31;63013;51.104;-115.370;2023-03-15T02:33:51;20.43;30.50
74537;SHT31;63013;51.104;-115.370;2023-03-15T02:36:23;20.40;30.52
74537;SHT31;63013;51.104;-115.370;2023-03-15T02:38:54;20.39;30.53
74537;SHT31;63013;51.104;-115.370;2023-03-15T02:44:22;20.34;30.61
74537;SHT31;63013;51.104;-115.370;2023-03-15T02:47:07;20.32;30.64
74537;SHT31;63013;51.104;-115.370;2023-03-15T02:49:45;20.29;30.66
74537;SHT31;63013;51.104;-115.370;2023-03-15T02:52:18;20.27;30.67
74537;SHT31;63013;51.104;-115.370;2023-03-15T02:54:47;20.25;30.70
74537;SHT31;63013;51.104;-115.370;2023-03-15T02:57:15;20.22;30.71
74537;SHT31;63013;51.104;-115.370;2023-03-15T02:59:45;20.20;30.71
74537;SHT31;63013;51.104;-115.370;2023-03-15T03:02:15;20.19;30.70
74537;SHT31;63013;51.104;-115.370;2023-03-15T03:04:42;20.17;30.77
74537;SHT31;63013;51.104;-115.370;2023-03-15T03:07:10;20.14;30.71
74537;SHT31;63013;51.104;-115.370;2023-03-15T03:09:37;20.13;30.78
74537;SHT31;63013;51.104;-115.370;2023-03-15T03:12:04;20.10;30.79
74537;SHT31;63013;51.104;-115.370;2023-03-15T03:14:31;20.08;30.82
74537;SHT31;63013;51.104;-115.370;2023-03-15T03:16:59;20.07;30.81
74537;SHT31;63013;51.104;-115.370;2023-03-15T03:19:26;20.05;30.81
74537;SHT31;63013;51.104;-115.370;2023-03-15T03:21:53;20.03;30.79
74537;SHT31;63013;51.104;-115.370;2023-03-15T03:24:21;20.00;30.76
74537;SHT31;63013;51.104;-115.370;2023-03-15T03:26:50;19.97;30.80
74537;SHT31;63013;51.104;-115.370;2023-03-15T03:29:22;19.96;30.79
74537;SHT31;63013;51.104;-115.370;2023-03-15T03:31:50;19.94;30.83
74537;SHT31;63013;51.104;-115.370;2023-03-15T03:34:18;19.92;30.83
74537;SHT31;63013;51.104;-115.370;2023-03-15T03:36:45;19.89;30.82
74537;SHT31;63013;51.104;-115.370;2023-03-15T03:39:13;19.87;30.81
74537;SHT31;63013;51.104;-115.370;2023-03-15T03:41:40;19.85;30.83
74537;SHT31;63013;51.104;-115.370;2023-03-15T03:44:07;19.82;30.83
74537;SHT31;63013;51.104;-115.370;2023-03-15T03:46:35;19.81;30.88
74537;SHT31;63013;51.104;-115.370;2023-03-15T03:49:02;19.79;30.89
74537;SHT31;63013;51.104;-115.370;2023-03-15T03:51:29;19.77;30.93
74537;SHT31;63013;51.104;-115.370;2023-03-15T03:53:58;19.75;30.95
74537;SHT31;63013;51.104;-115.370;2023-03-15T03:56:27;19.74;30.91
74537;SHT31;63013;51.104;-115.370;2023-03-15T03:58:54;19.72;30.92
74537;SHT31;63013;51.104;-115.370;2023-03-15T04:01:22;19.69;30.95
74537;SHT31;63013;51.104;-115.370;2023-03-15T04:03:49;19.67;30.94
74537;SHT31;63013;51.104;-115.370;2023-03-15T04:06:16;19.65;30.98
74537;SHT31;63013;51.104;-115.370;2023-03-15T04:08:43;19.63;30.96
74537;SHT31;63013;51.104;-115.370;2023-03-15T04:11:14;19.61;30.96
74537;SHT31;63013;51.104;-115.370;2023-03-15T04:13:43;19.59;30.92
74537;SHT31;63013;51.104;-115.370;2023-03-15T04:16:10;19.56;30.98
74537;SHT31;63013;51.104;-115.370;2023-03-15T04:18:39;19.55;30.98
74537;SHT31;63013;51.104;-115.370;2023-03-15T04:21:06;19.53;31.01
74537;SHT31;63013;51.104;-115.370;2023-03-15T04:23:35;19.51;31.01
74537;SHT31;63013;51.104;-115.370;2023-03-15T04:26:04;19.49;30.99
74537;SHT31;63013;51.104;-115.370;2023-03-15T04:28:32;19.48;31.02
74537;SHT31;63013;51.104;-115.370;2023-03-15T04:30:59;19.46;31.03
74537;SHT31;63013;51.104;-115.370;2023-03-15T04:33:26;19.42;30.96
74537;SHT31;63013;51.104;-115.370;2023-03-15T04:35:54;19.41;31.01
74537;SHT31;63013;51.104;-115.370;2023-03-15T04:38:21;19.39;31.03
74537;SHT31;63013;51.104;-115.370;2023-03-15T04:40:51;19.37;31.02
74537;SHT31;63013;51.104;-115.370;2023-03-15T04:43:19;19.35;31.01
74537;SHT31;63013;51.104;-115.370;2023-03-15T04:45:48;19.34;31.03
74537;SHT31;63013;51.104;-115.370;2023-03-15T04:48:16;19.31;31.04
74537;SHT31;63013;51.104;-115.370;2023-03-15T04:50:43;19.30;31.02
74537;SHT31;63013;51.104;-115.370;2023-03-15T04:53:10;19.28;31.05
74537;SHT31;63013;51.104;-115.370;2023-03-15T04:55:37;19.26;31.00
74537;SHT31;63013;51.104;-115.370;2023-03-15T04:58:05;19.24;31.09
74537;SHT31;63013;51.104;-115.370;2023-03-15T05:00:35;19.22;31.05
74537;SHT31;63013;51.104;-115.370;2023-03-15T05:03:02;19.21;31.06
74537;SHT31;63013;51.104;-115.370;2023-03-15T05:05:31;19.19;31.03
74537;SHT31;63013;51.104;-115.370;2023-03-15T05:07:58;19.18;31.07
74537;SHT31;63013;51.104;-115.370;2023-03-15T05:10:26;19.16;30.99
74537;SHT31;63013;51.104;-115.370;2023-03-15T05:12:57;19.14;31.01
74537;SHT31;63013;51.104;-115.370;2023-03-15T05:15:28;19.12;31.01
74537;SHT31;63013;51.104;-115.370;2023-03-15T05:17:55;19.10;31.04
74537;SHT31;63013;51.104;-115.370;2023-03-15T05:20:32;19.08;31.01
74537;SHT31;63013;51.104;-115.370;2023-03-15T05:23:02;19.07;31.08
74537;SHT31;63013;51.104;-115.370;2023-03-15T05:25:29;19.06;31.02
74537;SHT31;63013;51.104;-115.370;2023-03-15T05:28:05;19.02;30.99
74537;SHT31;63013;51.104;-115.370;2023-03-15T05:30:33;19.01;31.02
74537;SHT31;63013;51.104;-115.370;2023-03-15T05:33:00;18.99;31.11
74537;SHT31;63013;51.104;-115.370;2023-03-15T05:35:29;18.98;31.06
74537;SHT31;63013;51.104;-115.370;2023-03-15T05:37:57;18.96;31.01
74537;SHT31;63013;51.104;-115.370;2023-03-15T05:40:28;18.94;31.06
74537;SHT31;63013;51.104;-115.370;2023-03-15T05:42:55;18.90;31.03
74537;SHT31;63013;51.104;-115.370;2023-03-15T05:45:22;18.90;31.03
74537;SHT31;63013;51.104;-115.370;2023-03-15T05:47:50;18.88;31.05
74537;SHT31;63013;51.104;-115.370;2023-03-15T05:50:20;18.85;31.05
74537;SHT31;63013;51.104;-115.370;2023-03-15T05:52:49;18.83;31.07
74537;SHT31;63013;51.104;-115.370;2023-03-15T05:55:16;18.81;31.05
74537;SHT31;63013;51.104;-115.370;2023-03-15T05:57:44;18.79;31.11
74537;SHT31;63013;51.104;-115.370;2023-03-15T06:00:11;18.77;31.10
74537;SHT31;63013;51.104;-115.370;2023-03-15T06:02:41;18.76;31.13
74537;SHT31;63013;51.104;-115.370;2023-03-15T06:05:09;18.74;31.10
74537;SHT31;63013;51.104;-115.370;2023-03-15T06:07:37;18.72;31.12
74537;SHT31;63013;51.104;-115.370;2023-03-15T06:10:07;18.70;31.18
74537;SHT31;63013;51.104;-115.370;2023-03-15T06:12:44;18.68;31.12
74537;SHT31;63013;51.104;-115.370;2023-03-15T06:15:14;18.66;31.10
74537;SHT31;63013;51.104;-115.370;2023-03-15T06:17:48;18.64;31.10
74537;SHT31;63013;51.104;-115.370;2023-03-15T06:20:15;18.62;31.08
74537;SHT31;63013;51.104;-115.370;2023-03-15T06:22:42;18.60;31.08
74537;SHT31;63013;51.104;-115.370;2023-03-15T06:25:10;18.59;31.03
74537;SHT31;63013;51.104;-115.370;2023-03-15T06:27:37;18.57;31.07
74537;SHT31;63013;51.104;-115.370;2023-03-15T06:30:07;18.56;31.07
74537;SHT31;63013;51.104;-115.370;2023-03-15T06:32:35;18.53;30.96
74537;SHT31;63013;51.104;-115.370;2023-03-15T06:35:02;18.52;31.00
74537;SHT31;63013;51.104;-115.370;2023-03-15T06:37:30;18.49;30.95
74537;SHT31;63013;51.104;-115.370;2023-03-15T06:40:01;18.48;31.06
74537;SHT31;63013;51.104;-115.370;2023-03-15T06:42:34;18.46;31.03
74537;SHT31;63013;51.104;-115.370;2023-03-15T06:45:02;18.44;31.00
74537;SHT31;63013;51.104;-115.370;2023-03-15T06:47:31;18.42;31.05
74537;SHT31;63013;51.104;-115.370;2023-03-15T06:49:59;18.40;31.01
74537;SHT31;63013;51.104;-115.370;2023-03-15T06:52:26;18.38;31.00
74537;SHT31;63013;51.104;-115.370;2023-03-15T06:54:56;18.36;30.98
74537;SHT31;63013;51.104;-115.370;2023-03-15T06:57:27;18.34;30.97
74537;SHT31;63013;51.104;-115.370;2023-03-15T06:59:54;18.32;31.02
74537;SHT31;63013;51.104;-115.370;2023-03-15T07:02:21;18.31;31.02
74537;SHT31;63013;51.104;-115.370;2023-03-15T07:04:48;18.29;31.07
74537;SHT31;63013;51.104;-115.370;2023-03-15T07:07:16;18.28;31.06
74537;SHT31;63013;51.104;-115.370;2023-03-15T07:09:43;18.25;31.06
74537;SHT31;63013;51.104;-115.370;2023-03-15T07:12:11;18.24;30.99
74537;SHT31;63013;51.104;-115.370;2023-03-15T07:14:39;18.21;31.00
74537;SHT31;63013;51.104;-115.370;2023-03-15T07:17:06;18.21;31.10
74537;SHT31;63013;51.104;-115.370;2023-03-15T07:19:42;18.19;31.09
74537;SHT31;63013;51.104;-115.370;2023-03-15T07:22:10;18.17;31.07
74537;SHT31;63013;51.104;-115.370;2023-03-15T07:24:40;18.16;31.06
74537;SHT31;63013;51.104;-115.370;2023-03-15T07:27:10;18.14;31.01
74537;SHT31;63013;51.104;-115.370;2023-03-15T07:29:50;18.12;31.01
74537;SHT31;63013;51.104;-115.370;2023-03-15T07:32:17;18.10;30.97
74537;SHT31;63013;51.104;-115.370;2023-03-15T07:34:45;18.08;31.05
74537;SHT31;63013;51.104;-115.370;2023-03-15T07:37:12;18.06;31.04
74537;SHT31;63013;51.104;-115.370;2023-03-15T07:39:43;18.04;31.02
74537;SHT31;63013;51.104;-115.370;2023-03-15T07:42:10;18.03;31.08
74537;SHT31;63013;51.104;-115.370;2023-03-15T07:44:37;18.01;30.99
74537;SHT31;63013;51.104;-115.370;2023-03-15T07:47:10;17.99;31.05
74537;SHT31;63013;51.104;-115.370;2023-03-15T07:49:37;17.97;31.01
74537;SHT31;63013;51.104;-115.370;2023-03-15T07:52:04;17.96;30.95
74537;SHT31;63013;51.104;-115.370;2023-03-15T07:54:32;17.94;31.01
74537;SHT31;63013;51.104;-115.370;2023-03-15T07:56:59;17.92;30.94
74537;SHT31;63013;51.104;-115.370;2023-03-15T07:59:27;17.90;31.06
74537;SHT31;63013;51.104;-115.370;2023-03-15T08:01:54;17.89;31.01
74537;SHT31;63013;51.104;-115.370;2023-03-15T08:04:21;17.87;31.00
74537;SHT31;63013;51.104;-115.370;2023-03-15T08:06:48;17.84;31.06
74537;SHT31;63013;51.104;-115.370;2023-03-15T08:09:16;17.83;31.09
74537;SHT31;63013;51.104;-115.370;2023-03-15T08:11:43;17.81;31.10
74537;SHT31;63013;51.104;-115.370;2023-03-15T08:14:10;17.79;31.03
74537;SHT31;63013;51.104;-115.370;2023-03-15T08:16:37;17.77;31.10
74537;SHT31;63013;51.104;-115.370;2023-03-15T08:19:05;17.76;31.08
74537;SHT31;63013;51.104;-115.370;2023-03-15T08:21:33;17.75;31.07
74537;SHT31;63013;51.104;-115.370;2023-03-15T08:24:00;17.73;31.06
74537;SHT31;63013;51.104;-115.370;2023-03-15T08:26:28;17.71;30.91
74537;SHT31;63013;51.104;-115.370;2023-03-15T08:28:55;17.68;31.08
74537;SHT31;63013;51.104;-115.370;2023-03-15T08:31:22;17.67;31.07
74537;SHT31;63013;51.104;-115.370;2023-03-15T08:33:49;17.65;30.97
74537;SHT31;63013;51.104;-115.370;2023-03-15T08:36:16;17.63;31.06
74537;SHT31;63013;51.104;-115.370;2023-03-15T08:38:45;17.62;31.03
74537;SHT31;63013;51.104;-115.370;2023-03-15T08:41:12;17.60;31.12
74537;SHT31;63013;51.104;-115.370;2023-03-15T08:43:39;17.58;31.21
74537;SHT31;63013;51.104;-115.370;2023-03-15T08:46:06;17.57;31.24
74537;SHT31;63013;51.104;-115.370;2023-03-15T08:48:34;17.55;31.10
74537;SHT31;63013;51.104;-115.370;2023-03-15T08:51:02;17.53;31.11
74537;SHT31;63013;51.104;-115.370;2023-03-15T08:53:31;17.51;31.06
74537;SHT31;63013;51.104;-115.370;2023-03-15T08:55:59;17.49;31.15
74537;SHT31;63013;51.104;-115.370;2023-03-15T08:58:26;17.47;31.09
74537;SHT31;63013;51.104;-115.370;2023-03-15T09:00:53;17.45;31.14
74537;SHT31;63013;51.104;-115.370;2023-03-15T09:03:21;17.43;31.13
74537;SHT31;63013;51.104;-115.370;2023-03-15T09:05:48;17.41;31.19
74537;SHT31;63013;51.104;-115.370;2023-03-15T09:08:21;17.40;31.10
74537;SHT31;63013;51.104;-115.370;2023-03-15T09:10:53;17.38;31.22
74537;SHT31;63013;51.104;-115.370;2023-03-15T09:13:24;17.36;31.15
74537;SHT31;63013;51.104;-115.370;2023-03-15T09:15:54;17.34;31.20
74537;SHT31;63013;51.104;-115.370;2023-03-15T09:18:22;17.32;31.13
74537;SHT31;63013;51.104;-115.370;2023-03-15T09:20:50;17.30;31.22
74537;SHT31;63013;51.104;-115.370;2023-03-15T09:23:17;17.29;31.20
74537;SHT31;63013;51.104;-115.370;2023-03-15T09:25:44;17.27;31.13
74537;SHT31;63013;51.104;-115.370;2023-03-15T09:28:11;17.25;31.21
74537;SHT31;63013;51.104;-115.370;2023-03-15T09:30:39;17.23;31.17
74537;SHT31;63013;51.104;-115.370;2023-03-15T09:33:07;17.22;31.18
74537;SHT31;63013;51.104;-115.370;2023-03-15T09:35:39;17.20;31.25
74537;SHT31;63013;51.104;-115.370;2023-03-15T09:38:06;17.19;31.17
74537;SHT31;63013;51.104;-115.370;2023-03-15T09:40:41;17.17;31.15
74537;SHT31;63013;51.104;-115.370;2023-03-15T09:46:24;17.12;31.10
74537;SHT31;63013;51.104;-115.370;2023-03-15T09:49:06;17.11;31.10
74537;SHT31;63013;51.104;-115.370;2023-03-15T09:52:05;17.09;31.20
74537;SHT31;63013;51.104;-115.370;2023-03-15T09:55:15;17.06;31.20
74537;SHT31;63013;51.104;-115.370;2023-03-15T10:00:37;17.03;31.11
74537;SHT31;63013;51.104;-115.370;2023-03-15T10:06:22;16.99;31.24
74537;SHT31;63013;51.104;-115.370;2023-03-15T10:09:02;16.97;31.26
74537;SHT31;63013;51.104;-115.370;2023-03-15T10:11:43;16.95;31.16
74537;SHT31;63013;51.104;-115.370;2023-03-15T10:17:20;16.91;31.07
74537;SHT31;63013;51.104;-115.370;2023-03-15T10:20:18;16.89;31.19
74537;SHT31;63013;51.104;-115.370;2023-03-15T10:25:28;16.86;31.14
74537;SHT31;63013;51.104;-115.370;2023-03-15T10:28:01;16.85;31.31
74537;SHT31;63013;51.104;-115.370;2023-03-15T10:30:38;16.83;31.16
74537;SHT31;63013;51.104;-115.370;2023-03-15T10:33:27;16.83;31.21
74537;SHT31;63013;51.104;-115.370;2023-03-15T10:36:02;16.81;31.23
74537;SHT31;63013;51.104;-115.370;2023-03-15T10:38:46;16.79;31.30
74537;SHT31;63013;51.104;-115.370;2023-03-15T10:44:19;16.75;31.27
74537;SHT31;63013;51.104;-115.370;2023-03-15T10:49:42;16.71;31.28
74537;SHT31;63013;51.104;-115.370;2023-03-15T10:55:10;16.68;31.51
74537;SHT31;63013;51.104;-115.370;2023-03-15T10:57:54;16.66;31.24
74537;SHT31;63013;51.104;-115.370;2023-03-15T11:05:45;16.61;31.26
74537;SHT31;63013;51.104;-115.370;2023-03-15T11:08:16;16.59;31.24
74537;SHT31;63013;51.104;-115.370;2023-03-15T11:10:57;16.56;31.28
74537;SHT31;63013;51.104;-115.370;2023-03-15T11:13:31;16.56;31.23
74537;SHT31;63013;51.104;-115.370;2023-03-15T11:21:23;16.50;31.45
74537;SHT31;63013;51.104;-115.370;2023-03-15T11:23:58;16.48;31.33
74537;SHT31;63013;51.104;-115.370;2023-03-15T11:26:32;16.47;31.20
74537;SHT31;63013;51.104;-115.370;2023-03-15T11:29:24;16.45;31.35
74537;SHT31;63013;51.104;-115.370;2023-03-15T11:31:51;16.43;31.32
74537;SHT31;63013;51.104;-115.370;2023-03-15T11:37:18;16.38;31.25
74537;SHT31;63013;51.104;-115.370;2023-03-15T11:40:03;16.37;31.28
74537;SHT31;63013;51.104;-115.370;2023-03-15T11:42:47;16.33;31.34
74537;SHT31;63013;51.104;-115.370;2023-03-15T11:45:32;16.33;31.42
74537;SHT31;63013;51.104;-115.370;2023-03-15T11:48:03;16.31;31.47
74537;SHT31;63013;51.104;-115.370;2023-03-15T11:51:17;16.30;31.23
74537;SHT31;63013;51.104;-115.370;2023-03-15T11:53:57;16.28;31.22
74537;SHT31;63013;51.104;-115.370;2023-03-15T11:59:24;16.25;31.31
74537;SHT31;63013;51.104;-115.370;2023-03-15T12:01:57;16.23;31.22
74537;SHT31;63013;51.104;-115.370;2023-03-15T12:07:07;16.20;31.41
74537;SHT31;63013;51.104;-115.370;2023-03-15T12:15:01;16.15;31.35
74537;SHT31;63013;51.104;-115.370;2023-03-15T12:18:03;16.13;31.36
74537;SHT31;63013;51.104;-115.370;2023-03-15T12:20:40;16.11;31.45
74537;SHT31;63013;51.104;-115.370;2023-03-15T12:28:41;16.06;31.46
74537;SHT31;63013;51.104;-115.370;2023-03-15T12:31:42;16.04;31.47
74537;SHT31;63013;51.104;-115.370;2023-03-15T12:34:26;16.02;31.32
74537;SHT31;63013;51.104;-115.370;2023-03-15T12:37:15;16.00;31.32
74537;SHT31;63013;51.104;-115.370;2023-03-15T12:39:48;15.98;31.35
74537;SHT31;63013;51.104;-115.370;2023-03-15T12:47:45;15.95;31.13
74537;SHT31;63013;51.104;-115.370;2023-03-15T12:50:38;15.94;31.12
74537;SHT31;63013;51.104;-115.370;2023-03-15T12:53:18;15.91;31.18
74537;SHT31;63013;51.104;-115.370;2023-03-15T12:58:52;15.87;31.38
74537;SHT31;63013;51.104;-115.370;2023-03-15T13:01:44;15.85;31.51
74537;SHT31;63013;51.104;-115.370;2023-03-15T13:04:11;15.83;31.40
74537;SHT31;63013;51.104;-115.370;2023-03-15T13:06:54;15.82;31.46
74537;SHT31;63013;51.104;-115.370;2023-03-15T13:21:49;15.72;31.09
74537;SHT31;63013;51.104;-115.370;2023-03-15T13:24:51;15.70;31.33
74537;SHT31;63013;51.104;-115.370;2023-03-15T13:27:36;15.68;31.40
74537;SHT31;63013;51.104;-115.370;2023-03-15T13:36:10;15.63;31.48
74537;SHT31;63013;51.104;-115.370;2023-03-15T13:38:50;15.62;31.15
74537;SHT31;63013;51.104;-115.370;2023-03-15T13:41:21;15.61;30.95
74537;SHT31;63013;51.104;-115.370;2023-03-15T13:43:57;15.61;30.87
74537;SHT31;63013;51.104;-115.370;2023-03-15T13:46:30;15.63;30.83
74537;SHT31;63013;51.104;-115.370;2023-03-15T13:48:59;15.64;30.80
74537;SHT31;63013;51.104;-115.370;2023-03-15T13:51:30;15.65;30.79
74537;SHT31;63013;51.104;-115.370;2023-03-15T13:54:04;15.68;30.80
74537;SHT31;63013;51.104;-115.370;2023-03-15T13:56:37;15.71;30.80
74537;SHT31;63013;51.104;-115.370;2023-03-15T13:59:43;15.75;30.79
74537;SHT31;63013;51.104;-115.370;2023-03-15T14:05:10;15.80;30.81
74537;SHT31;63013;51.104;-115.370;2023-03-15T14:07:45;15.81;30.87
74537;SHT31;63013;51.104;-115.370;2023-03-15T14:13:45;15.80;31.02
74537;SHT31;63013;51.104;-115.370;2023-03-15T14:15:58;15.78;31.05
74537;SHT31;63013;51.104;-115.370;2023-03-15T14:18:41;15.77;31.11
74537;SHT31;63013;51.104;-115.370;2023-03-15T14:21:15;15.76;31.09
74537;SHT31;63013;51.104;-115.370;2023-03-15T14:23:47;15.75;31.17
74537;SHT31;63013;51.104;-115.370;2023-03-15T14:26:30;15.73;31.27
74537;SHT31;63013;51.104;-115.370;2023-03-15T14:28:59;15.72;31.26
74537;SHT31;63013;51.104;-115.370;2023-03-15T14:31:44;15.70;31.26
74537;SHT31;63013;51.104;-115.370;2023-03-15T14:36:50;15.68;31.31
74537;SHT31;63013;51.104;-115.370;2023-03-15T14:39:26;15.67;31.36
74537;SHT31;63013;51.104;-115.370;2023-03-15T14:42:03;15.65;31.40
74537;SHT31;63013;51.104;-115.370;2023-03-15T14:44:32;15.64;31.39
74537;SHT31;63013;51.104;-115.370;2023-03-15T14:46:59;15.62;31.32
74537;SHT31;63013;51.104;-115.370;2023-03-15T14:49:31;15.60;31.39
74537;SHT31;63013;51.104;-115.370;2023-03-15T14:51:59;15.60;31.35
74537;SHT31;63013;51.104;-115.370;2023-03-15T14:54:30;15.58;31.32
74537;SHT31;63013;51.104;-115.370;2023-03-15T14:56:58;15.56;31.40
74537;SHT31;63013;51.104;-115.370;2023-03-15T14:59:26;15.55;31.37
74537;SHT31;63013;51.104;-115.370;2023-03-15T15:01:54;15.54;31.41
74537;SHT31;63013;51.104;-115.370;2023-03-15T15:04:26;15.52;31.42
74537;SHT31;63013;51.104;-115.370;2023-03-15T15:06:59;15.51;31.46
74537;SHT31;63013;51.104;-115.370;2023-03-15T15:09:27;15.49;31.41
74537;SHT31;63013;51.104;-115.370;2023-03-15T15:11:56;15.48;31.39
74537;SHT31;63013;51.104;-115.370;2023-03-15T15:14:23;15.46;31.15
74537;SHT31;63013;51.104;-115.370;2023-03-15T15:16:50;15.46;31.04
74537;SHT31;63013;51.104;-115.370;2023-03-15T15:19:17;15.46;31.00
74537;SHT31;63013;51.104;-115.370;2023-03-15T15:21:44;15.47;30.93
74537;SHT31;63013;51.104;-115.370;2023-03-15T15:24:13;15.49;30.93
74537;SHT31;63013;51.104;-115.370;2023-03-15T15:26:44;15.50;30.89
74537;SHT31;63013;51.104;-115.370;2023-03-15T15:29:13;15.52;30.90
74537;SHT31;63013;51.104;-115.370;2023-03-15T15:31:41;15.56;30.90
74537;SHT31;63013;51.104;-115.370;2023-03-15T15:34:10;15.57;30.90
74537;SHT31;63013;51.104;-115.370;2023-03-15T15:36:39;15.59;30.88
74537;SHT31;63013;51.104;-115.370;2023-03-15T15:39:26;15.62;30.88
74537;SHT31;63013;51.104;-115.370;2023-03-15T15:41:54;15.64;30.90
74537;SHT31;63013;51.104;-115.370;2023-03-15T15:44:21;15.65;30.93
74537;SHT31;63013;51.104;-115.370;2023-03-15T15:46:52;15.64;31.00
74537;SHT31;63013;51.104;-115.370;2023-03-15T15:49:19;15.64;31.01
74537;SHT31;63013;51.104;-115.370;2023-03-15T15:51:46;15.63;31.02
74537;SHT31;63013;51.104;-115.370;2023-03-15T15:54:18;15.63;31.09
74537;SHT31;63013;51.104;-115.370;2023-03-15T15:56:54;15.61;31.10
74537;SHT31;63013;51.104;-115.370;2023-03-15T15:59:24;15.61;31.12
74537;SHT31;63013;51.104;-115.370;2023-03-15T16:01:52;15.59;31.14
74537;SHT31;63013;51.104;-115.370;2023-03-15T16:04:20;15.58;31.21
74537;SHT31;63013;51.104;-115.370;2023-03-15T16:06:49;15.57;31.16
74537;SHT31;63013;51.104;-115.370;2023-03-15T16:09:23;15.56;31.20
74537;SHT31;63013;51.104;-115.370;2023-03-15T16:11:52;15.55;31.19
74537;SHT31;63013;51.104;-115.370;2023-03-15T16:14:20;15.54;31.21
74537;SHT31;63013;51.104;-115.370;2023-03-15T16:16:50;15.52;31.24
74537;SHT31;63013;51.104;-115.370;2023-03-15T16:19:18;15.51;31.18
74537;SHT31;63013;51.104;-115.370;2023-03-15T16:21:48;15.50;31.16
74537;SHT31;63013;51.104;-115.370;2023-03-15T16:24:20;15.49;31.20
74537;SHT31;63013;51.104;-115.370;2023-03-15T16:26:57;15.48;31.19
74537;SHT31;63013;51.104;-115.370;2023-03-15T16:32:12;15.46;31.25
74537;SHT31;63013;51.104;-115.370;2023-03-15T16:34:44;15.45;31.21
74537;SHT31;63013;51.104;-115.370;2023-03-15T16:37:13;15.44;31.20
74537;SHT31;63013;51.104;-115.370;2023-03-15T16:39:47;15.43;31.26
74537;SHT31;63013;51.104;-115.370;2023-03-15T16:42:15;15.41;31.24
74537;SHT31;63013;51.104;-115.370;2023-03-15T16:44:47;15.41;31.25
74537;SHT31;63013;51.104;-115.370;2023-03-15T16:47:16;15.40;31.22
74537;SHT31;63013;51.104;-115.370;2023-03-15T16:49:44;15.39;31.20
74537;SHT31;63013;51.104;-115.370;2023-03-15T16:52:12;15.38;31.23
74537;SHT31;63013;51.104;-115.370;2023-03-15T16:54:41;15.38;31.21
74537;SHT31;63013;51.104;-115.370;2023-03-15T16:57:11;15.38;31.06